Time;durP1;ratioP1;P1;durP2;ratioP2;P2;SDS_P1;SDS_P2;PMS_P1;PMS_P2;Temp;Humidity;BMP_temperature;BMP_pressure;BME280_temperature;BME280_humidity;BME280_pressure;Samples;Min_cycle;Max_cycle;Signal;HPM_P1;HPM_P2
2021/12/08 00:02:15;;;;;;;7.40;2.23;;;3.70;99.90;;;;;;5013087;28;20255;-74
2021/12/08 00:04:42;;;;;;;2.27;2.00;;;3.80;99.90;;;;;;5021590;28;20471;-73
2021/12/08 00:07:08;;;;;;;2.67;2.10;;;3.80;99.90;;;;;;5013259;28;20455;-73
2021/12/08 00:09:48;;;;;;;2.77;2.20;;;3.80;99.90;;;;;;5014979;28;20535;-75
2021/12/08 00:14:58;;;;;;;2.30;1.97;;;3.80;99.90;;;;;;5029469;28;20458;-74
2021/12/08 00:17:25;;;;;;;2.63;2.27;;;3.80;99.90;;;;;;5014190;28;20455;-74
2021/12/08 00:19:51;;;;;;;1.97;1.83;;;3.80;99.90;;;;;;5013524;28;20307;-73
2021/12/08 00:22:17;;;;;;;3.30;2.23;;;3.80;99.90;;;;;;5027111;28;20638;-73
2021/12/08 00:24:44;;;;;;;2.60;2.03;;;3.70;99.90;;;;;;5031514;28;20459;-74
2021/12/08 00:27:10;;;;;;;2.50;2.03;;;3.80;99.90;;;;;;4997064;28;20439;-71
2021/12/08 00:29:36;;;;;;;2.57;1.97;;;3.80;99.90;;;;;;5012923;28;20466;-72
2021/12/08 00:32:03;;;;;;;2.47;2.27;;;3.80;99.90;;;;;;5013562;28;20232;-73
2021/12/08 00:34:31;;;;;;;3.17;2.23;;;3.80;99.90;;;;;;5029609;28;20311;-73
2021/12/08 00:36:59;;;;;;;4.93;2.33;;;3.80;99.90;;;;;;5030726;28;20455;-73
2021/12/08 00:39:25;;;;;;;2.40;2.00;;;3.80;99.90;;;;;;5013067;28;20463;-73
2021/12/08 00:41:51;;;;;;;9.53;2.53;;;3.70;99.90;;;;;;5013036;28;20464;-73
2021/12/08 00:44:17;;;;;;;2.80;2.37;;;3.70;99.90;;;;;;5012735;28;20216;-71
2021/12/08 00:46:44;;;;;;;3.53;2.47;;;3.70;99.90;;;;;;5012566;28;20452;-73
2021/12/08 00:49:11;;;;;;;4.00;2.00;;;3.70;99.90;;;;;;5012152;28;20221;-74
2021/12/08 00:51:37;;;;;;;2.43;2.23;;;3.70;99.90;;;;;;5013269;28;20458;-75
2021/12/08 00:54:03;;;;;;;2.00;1.60;;;3.70;99.90;;;;;;5013246;28;20455;-72
2021/12/08 00:56:29;;;;;;;3.30;1.87;;;3.70;99.90;;;;;;4999501;28;20231;-73
2021/12/08 00:58:55;;;;;;;2.37;1.93;;;3.70;99.90;;;;;;5012903;28;20228;-73
2021/12/08 01:01:22;;;;;;;3.10;2.30;;;3.60;99.90;;;;;;5012989;28;21017;-73
2021/12/08 01:03:49;;;;;;;2.90;2.30;;;3.60;99.90;;;;;;5029873;28;20788;-71
2021/12/08 01:06:17;;;;;;;3.80;2.30;;;3.60;99.90;;;;;;5013064;28;20451;-72
2021/12/08 01:08:43;;;;;;;3.40;2.03;;;3.60;99.90;;;;;;5030818;28;20459;-73
2021/12/08 01:11:18;;;;;;;1.97;1.83;;;3.70;99.90;;;;;;5014314;28;20821;-72
2021/12/08 01:13:44;;;;;;;2.43;1.97;;;3.70;99.90;;;;;;5012529;28;20585;-73
2021/12/08 01:16:10;;;;;;;2.70;1.97;;;3.70;99.90;;;;;;5030066;28;20435;-72
2021/12/08 01:18:36;;;;;;;6.30;3.10;;;3.70;99.90;;;;;;5013640;28;20459;-73
2021/12/08 01:21:05;;;;;;;2.80;2.03;;;3.70;99.90;;;;;;5029788;28;20548;-73
2021/12/08 01:23:31;;;;;;;3.07;2.37;;;3.70;99.90;;;;;;5010948;28;20219;-74
2021/12/08 01:25:57;;;;;;;2.03;1.83;;;3.80;99.90;;;;;;5030414;28;20451;-75
2021/12/08 01:28:23;;;;;;;2.97;2.77;;;3.80;99.90;;;;;;5013317;28;20994;-75
2021/12/08 01:30:52;;;;;;;2.57;2.30;;;3.80;99.90;;;;;;5011652;28;20499;-75
2021/12/08 01:33:19;;;;;;;3.83;2.20;;;3.70;99.90;;;;;;5018189;28;20876;-73
2021/12/08 01:35:45;;;;;;;3.70;2.40;;;3.70;99.90;;;;;;5012051;28;20838;-73
2021/12/08 01:38:11;;;;;;;2.47;2.27;;;3.70;99.90;;;;;;5026982;28;20456;-72
2021/12/08 01:40:38;;;;;;;2.97;2.10;;;3.80;99.90;;;;;;5024681;28;20490;-72
2021/12/08 01:43:11;;;;;;;2.67;2.20;;;3.80;99.90;;;;;;5028683;28;20482;-73
2021/12/08 01:48:21;;;;;;;2.60;2.20;;;3.80;99.90;;;;;;5009338;28;20462;-75
2021/12/08 01:50:52;;;;;;;2.13;1.97;;;3.80;99.90;;;;;;5010284;28;20475;-71
2021/12/08 01:53:19;;;;;;;2.43;2.23;;;3.80;99.90;;;;;;5012495;28;20254;-74
2021/12/08 01:55:45;;;;;;;4.07;2.23;;;3.90;99.90;;;;;;5012001;28;20455;-74
2021/12/08 01:58:11;;;;;;;4.27;2.53;;;3.80;99.90;;;;;;5029573;28;20461;-73
2021/12/08 02:00:41;;;;;;;3.20;2.67;;;3.80;99.90;;;;;;5014812;28;20278;-75
2021/12/08 02:03:07;;;;;;;2.77;2.37;;;3.80;99.90;;;;;;5011272;28;20527;-72
2021/12/08 02:05:34;;;;;;;2.03;1.90;;;3.80;99.90;;;;;;5011429;28;20463;-73
2021/12/08 02:08:00;;;;;;;2.87;2.10;;;3.80;99.90;;;;;;5011679;28;20460;-72
2021/12/08 02:10:26;;;;;;;2.40;2.00;;;3.80;99.90;;;;;;5014449;28;20486;-73
2021/12/08 02:12:53;;;;;;;2.13;1.90;;;3.80;99.90;;;;;;5010926;28;20246;-72
2021/12/08 02:15:20;;;;;;;2.77;2.57;;;3.80;99.90;;;;;;5029633;28;20490;-73
2021/12/08 02:17:52;;;;;;;2.30;2.10;;;3.80;99.90;;;;;;5011329;28;20474;-72
2021/12/08 02:20:20;;;;;;;2.63;2.30;;;3.70;99.90;;;;;;5011437;28;20451;-72
2021/12/08 02:22:45;;;;;;;2.27;2.07;;;3.70;99.90;;;;;;5027211;28;20451;-73
2021/12/08 02:25:22;;;;;;;2.50;2.30;;;3.70;99.90;;;;;;5028401;28;20535;-73
2021/12/08 02:27:48;;;;;;;4.70;2.80;;;3.80;99.90;;;;;;5028045;28;20708;-72
2021/12/08 02:30:24;;;;;;;3.10;2.37;;;3.70;99.90;;;;;;5028442;28;20470;-73
2021/12/08 02:46:41;;;;;;;2.47;1.83;;;3.80;99.90;;;;;;5027262;28;20470;-73
2021/12/08 02:49:07;;;;;;;2.00;1.80;;;3.80;99.90;;;;;;5010687;28;20456;-73
2021/12/08 02:51:33;;;;;;;1.97;1.87;;;3.80;99.90;;;;;;5010559;28;20466;-72
2021/12/08 02:53:59;;;;;;;2.97;2.47;;;3.80;99.90;;;;;;5008880;28;20225;-73
2021/12/08 02:56:26;;;;;;;2.23;2.10;;;3.90;99.90;;;;;;4991959;28;20459;-73
2021/12/08 02:58:52;;;;;;;2.10;1.90;;;3.90;99.90;;;;;;5012755;28;21055;-72
2021/12/08 03:01:17;;;;;;;2.37;1.93;;;4.00;99.90;;;;;;5023031;28;20451;-73
2021/12/08 03:03:43;;;;;;;3.70;2.27;;;3.90;99.90;;;;;;5026944;28;20459;-73
2021/12/08 03:06:11;;;;;;;3.73;2.67;;;4.00;99.90;;;;;;5011016;28;20240;-73
2021/12/08 03:08:37;;;;;;;4.70;2.57;;;3.90;99.90;;;;;;5011250;28;20224;-73
2021/12/08 03:11:03;;;;;;;3.37;2.23;;;3.90;99.90;;;;;;5012798;28;20962;-72
2021/12/08 03:13:38;;;;;;;2.30;2.00;;;3.90;99.90;;;;;;5032763;28;20232;-74
2021/12/08 03:16:05;;;;;;;2.60;2.03;;;3.90;99.90;;;;;;5014899;28;20453;-73
2021/12/08 03:18:36;;;;;;;2.83;2.27;;;3.90;99.90;;;;;;5014019;28;20444;-73
2021/12/08 03:21:04;;;;;;;2.97;2.10;;;4.00;99.90;;;;;;5017943;28;20455;-73
2021/12/08 03:23:46;;;;;;;3.63;2.20;;;4.00;99.90;;;;;;5031464;28;20462;-74
2021/12/08 03:26:12;;;;;;;3.63;2.47;;;4.00;99.90;;;;;;5013526;28;20447;-73
2021/12/08 03:28:45;;;;;;;2.87;2.20;;;4.00;99.90;;;;;;5015164;28;20485;-73
2021/12/08 03:31:16;;;;;;;2.17;1.97;;;4.00;99.90;;;;;;5014080;28;20451;-74
2021/12/08 03:33:43;;;;;;;3.20;2.57;;;4.10;99.90;;;;;;5015227;28;20447;-73
2021/12/08 03:36:10;;;;;;;2.63;2.10;;;4.10;99.90;;;;;;5032829;28;20748;-74
2021/12/08 03:38:36;;;;;;;3.37;2.47;;;4.10;99.90;;;;;;5014502;28;20546;-73
2021/12/08 03:41:03;;;;;;;3.90;2.40;;;4.10;99.90;;;;;;5032357;28;20451;-73
2021/12/08 03:43:29;;;;;;;4.33;2.93;;;4.10;99.90;;;;;;5021519;28;20455;-73
2021/12/08 03:45:57;;;;;;;2.40;2.20;;;4.10;99.90;;;;;;5014784;28;20451;-74
2021/12/08 03:48:42;;;;;;;6.03;3.30;;;4.10;99.90;;;;;;5031674;28;20459;-72
2021/12/08 03:51:09;;;;;;;8.53;3.27;;;4.10;99.90;;;;;;5031950;28;20451;-72
2021/12/08 03:53:34;;;;;;;6.67;3.10;;;4.10;99.90;;;;;;5013887;28;20954;-73
2021/12/08 03:56:00;;;;;;;4.07;2.87;;;4.20;99.90;;;;;;5013903;28;20461;-73
2021/12/08 03:58:26;;;;;;;4.17;2.77;;;4.20;99.90;;;;;;5014802;28;20223;-74
2021/12/08 04:00:54;;;;;;;4.47;2.90;;;4.20;99.90;;;;;;5029774;28;20247;-72
2021/12/08 04:03:20;;;;;;;3.00;2.30;;;4.20;99.90;;;;;;5014412;28;20507;-74
2021/12/08 04:05:54;;;;;;;;;;;;;;;;;;;;;
2021/12/08 04:08:19;;;;;;;5.47;3.00;;;4.20;99.90;;;;;;5032147;28;20447;-73
2021/12/08 04:10:48;;;;;;;5.13;2.87;;;4.20;99.90;;;;;;5015628;28;20239;-75
2021/12/08 04:13:15;;;;;;;3.50;3.13;;;4.30;99.90;;;;;;5030164;28;20479;-71
2021/12/08 04:15:41;;;;;;;4.40;3.10;;;4.30;99.90;;;;;;5014772;28;20471;-73
2021/12/08 04:18:07;;;;;;;9.13;3.33;;;4.30;99.90;;;;;;5013997;28;20498;-72
2021/12/08 04:20:46;;;;;;;10.07;2.97;;;4.20;99.90;;;;;;5013545;28;20224;-75
2021/12/08 04:23:14;;;;;;;4.53;3.07;;;4.30;99.90;;;;;;5021519;28;20220;-73
2021/12/08 04:25:45;;;;;;;3.03;2.47;;;4.30;99.90;;;;;;5013209;28;20490;-72
2021/12/08 04:28:16;;;;;;;3.00;2.23;;;4.30;99.90;;;;;;5029812;28;20458;-73
2021/12/08 04:30:54;;;;;;;2.87;2.63;;;4.30;99.90;;;;;;5014128;28;20463;-73
2021/12/08 04:33:20;;;;;;;2.07;1.97;;;4.30;99.90;;;;;;5031744;28;20479;-73
2021/12/08 04:35:48;;;;;;;3.10;2.90;;;4.30;99.90;;;;;;5012980;28;20482;-73
2021/12/08 04:38:21;;;;;;;4.10;2.70;;;4.30;99.90;;;;;;5013948;28;20447;-74
2021/12/08 04:43:34;;;;;;;3.40;2.13;;;4.30;99.90;;;;;;5030589;28;20489;-73
2021/12/08 04:52:23;;;;;;;2.73;2.53;;;4.30;99.90;;;;;;4925596;29;20459;-73
2021/12/08 05:08:45;;;;;;;5.23;2.27;;;4.40;99.90;;;;;;5030702;28;20439;-73
2021/12/08 05:11:14;;;;;;;4.40;3.33;;;4.40;99.90;;;;;;5032482;28;20452;-73
2021/12/08 05:13:42;;;;;;;3.50;2.50;;;4.40;99.90;;;;;;5031697;28;20470;-73
2021/12/08 05:16:09;;;;;;;4.27;2.57;;;4.40;99.90;;;;;;5013989;28;20439;-71
2021/12/08 05:18:39;;;;;;;9.23;3.27;;;4.40;99.90;;;;;;5014795;28;20524;-74
2021/12/08 05:21:13;;;;;;;3.90;2.77;;;4.40;99.90;;;;;;5008063;28;20919;-73
2021/12/08 05:23:42;;;;;;;2.67;2.47;;;4.40;99.90;;;;;;5013883;28;20534;-73
2021/12/08 05:26:15;;;;;;;3.30;2.70;;;4.40;99.90;;;;;;5013528;28;20500;-73
2021/12/08 05:28:43;;;;;;;3.00;2.70;;;4.40;99.90;;;;;;5031013;28;20459;-69
2021/12/08 05:31:22;;;;;;;3.40;2.80;;;4.50;99.90;;;;;;5013620;28;20489;-72
2021/12/08 05:33:48;;;;;;;3.77;2.80;;;4.40;99.90;;;;;;5004973;28;20480;-73
2021/12/08 05:36:16;;;;;;;3.80;3.20;;;4.40;99.90;;;;;;5013483;28;20546;-74
2021/12/08 05:38:42;;;;;;;2.70;2.50;;;4.50;99.90;;;;;;5012863;28;20439;-72
2021/12/08 05:41:16;;;;;;;3.90;3.10;;;4.50;99.90;;;;;;5012932;28;20436;-72
2021/12/08 05:43:44;;;;;;;3.73;3.30;;;4.50;99.90;;;;;;5014024;28;20458;-74
2021/12/08 05:46:11;;;;;;;3.67;3.03;;;4.50;99.90;;;;;;5027526;28;20428;-73
2021/12/08 05:48:38;;;;;;;3.57;3.20;;;4.50;99.90;;;;;;5031210;28;20444;-73
2021/12/08 05:51:08;;;;;;;3.50;2.90;;;4.50;99.90;;;;;;5012258;28;20463;-74
2021/12/08 05:53:37;;;;;;;2.70;2.50;;;4.50;99.90;;;;;;5012998;28;20862;-72
2021/12/08 05:56:04;;;;;;;3.20;2.50;;;4.50;99.90;;;;;;5012750;28;20478;-73
2021/12/08 05:58:30;;;;;;;4.30;2.93;;;4.50;99.90;;;;;;5013802;28;20455;-74
2021/12/08 06:01:12;;;;;;;4.50;3.20;;;4.50;99.90;;;;;;5011082;28;20470;-74
2021/12/08 06:03:42;;;;;;;2.90;2.70;;;4.50;99.90;;;;;;5012122;28;20482;-73
2021/12/08 06:06:09;;;;;;;3.00;2.70;;;4.60;99.90;;;;;;5011105;28;20551;-73
2021/12/08 06:08:35;;;;;;;4.17;3.43;;;4.60;99.90;;;;;;5010291;28;20458;-73
2021/12/08 06:11:04;;;;;;;3.83;2.70;;;4.60;99.90;;;;;;5007199;28;20475;-73
2021/12/08 06:13:30;;;;;;;5.57;3.07;;;4.60;99.90;;;;;;5022605;28;20463;-73
2021/12/08 06:15:57;;;;;;;3.40;3.10;;;4.60;99.90;;;;;;5005385;28;20468;-71
2021/12/08 06:18:26;;;;;;;4.80;3.17;;;4.60;99.90;;;;;;5012922;28;20974;-73
2021/12/08 06:20:56;;;;;;;4.57;3.40;;;4.60;99.90;;;;;;5028449;28;20467;-71
2021/12/08 06:23:22;;;;;;;4.53;3.40;;;4.60;99.90;;;;;;5025419;28;20551;-73
2021/12/08 06:25:47;;;;;;;6.60;4.23;;;4.60;99.90;;;;;;4976387;28;20535;-74
2021/12/08 06:28:13;;;;;;;4.20;3.60;;;4.60;99.90;;;;;;4979846;28;20243;-73
2021/12/08 06:30:45;;;;;;;4.60;4.20;;;4.60;99.90;;;;;;5025770;28;20220;-73
2021/12/08 06:33:13;;;;;;;3.97;3.60;;;4.60;99.90;;;;;;4996214;28;20483;-73
2021/12/08 06:35:44;;;;;;;5.67;3.43;;;4.60;99.90;;;;;;5029892;28;20520;-73
2021/12/08 06:38:10;;;;;;;3.93;3.53;;;4.60;99.90;;;;;;5029717;28;20462;-73
2021/12/08 06:40:41;;;;;;;4.10;3.10;;;4.60;99.90;;;;;;5030283;28;20531;-73
2021/12/08 06:43:11;;;;;;;4.20;3.57;;;4.60;99.90;;;;;;5028364;28;20452;-73
2021/12/08 06:45:40;;;;;;;5.03;3.63;;;4.60;99.90;;;;;;5028566;28;20538;-73
2021/12/08 06:48:12;;;;;;;4.73;3.10;;;4.60;99.90;;;;;;5011319;28;20455;-73
2021/12/08 06:51:00;;;;;;;7.43;4.50;;;4.60;99.90;;;;;;5012347;28;20483;-73
2021/12/08 06:53:28;;;;;;;6.07;4.10;;;4.60;99.90;;;;;;5010258;28;20494;-73
2021/12/08 06:56:27;;;;;;;6.03;4.43;;;4.60;99.90;;;;;;5011821;28;20516;-73
2021/12/08 06:58:58;;;;;;;7.97;5.17;;;4.60;99.90;;;;;;4992458;28;20946;-73
2021/12/08 07:07:00;;;;;;;7.60;4.97;;;4.60;99.90;;;;;;5028587;28;20513;-73
2021/12/08 07:09:46;;;;;;;6.50;5.30;;;4.60;99.90;;;;;;5033624;28;20481;-73
2021/12/08 07:12:22;;;;;;;5.80;4.00;;;4.60;99.90;;;;;;5033186;28;20467;-73
2021/12/08 07:14:52;;;;;;;5.43;4.90;;;4.60;99.90;;;;;;5011729;28;20463;-75
2021/12/08 07:17:22;;;;;;;6.53;5.40;;;4.60;99.90;;;;;;5029976;28;20447;-73
2021/12/08 07:20:02;;;;;;;7.63;5.90;;;4.60;99.90;;;;;;5011887;28;20878;-74
2021/12/08 07:22:32;;;;;;;5.70;4.17;;;4.60;99.90;;;;;;5027935;28;20894;-73
2021/12/08 07:25:01;;;;;;;7.40;5.23;;;4.60;99.90;;;;;;5010420;28;20494;-73
2021/12/08 07:27:31;;;;;;;7.17;4.50;;;4.60;99.90;;;;;;5004482;28;20475;-75
2021/12/08 07:29:59;;;;;;;6.93;4.67;;;4.60;99.90;;;;;;5012079;28;20554;-74
2021/12/08 07:32:29;;;;;;;8.03;5.07;;;4.60;99.90;;;;;;5011320;28;20490;-73
2021/12/08 07:34:59;;;;;;;5.97;4.50;;;4.60;99.90;;;;;;5025831;28;20505;-75
2021/12/08 07:37:28;;;;;;;6.03;5.23;;;4.60;99.90;;;;;;5028773;28;20538;-72
2021/12/08 07:40:17;;;;;;;7.20;4.93;;;4.60;99.90;;;;;;5010532;28;20858;-73
2021/12/08 07:42:51;;;;;;;6.40;4.57;;;4.60;99.90;;;;;;4993432;28;20452;-73
2021/12/08 07:45:24;;;;;;;12.00;6.37;;;4.60;99.90;;;;;;5025580;28;20462;-73
2021/12/08 07:47:52;;;;;;;7.20;6.30;;;4.60;99.90;;;;;;5010578;28;20528;-73
2021/12/08 07:50:26;;;;;;;7.40;5.70;;;4.60;99.90;;;;;;5010913;28;20455;-74
2021/12/08 07:52:53;;;;;;;8.53;5.57;;;4.60;99.90;;;;;;5010477;28;20459;-74
2021/12/08 07:55:25;;;;;;;8.07;5.80;;;4.60;99.90;;;;;;5009268;28;20517;-72
2021/12/08 07:57:52;;;;;;;8.10;5.43;;;4.60;99.90;;;;;;5009528;28;20456;-73
2021/12/08 08:00:26;;;;;;;8.27;5.93;;;4.60;99.90;;;;;;5014641;28;20465;-73
2021/12/08 08:02:53;;;;;;;5.33;4.30;;;4.60;99.90;;;;;;5014001;28;20554;-75
2021/12/08 08:05:22;;;;;;;5.80;4.73;;;4.60;99.90;;;;;;5012980;28;20529;-74
2021/12/08 08:07:49;;;;;;;8.27;5.40;;;4.60;99.90;;;;;;5008962;28;20455;-72
2021/12/08 08:10:17;;;;;;;6.50;5.10;;;4.60;99.90;;;;;;5016533;28;20458;-73
2021/12/08 08:12:49;;;;;;;8.53;5.43;;;4.60;99.90;;;;;;5032415;28;20467;-73
2021/12/08 08:15:21;;;;;;;7.93;5.60;;;4.60;99.90;;;;;;5014052;28;20463;-75
2021/12/08 08:17:51;;;;;;;9.90;6.10;;;4.60;99.90;;;;;;5031923;28;20474;-73
2021/12/08 08:20:28;;;;;;;7.50;5.10;;;4.60;99.90;;;;;;5011551;28;20558;-73
2021/12/08 08:22:55;;;;;;;7.30;4.87;;;4.60;99.90;;;;;;5006686;28;20478;-73
2021/12/08 08:25:25;;;;;;;12.00;5.13;;;4.60;99.90;;;;;;4990189;28;20491;-73
2021/12/08 08:27:51;;;;;;;7.67;5.20;;;4.60;99.90;;;;;;5027476;28;21029;-73
2021/12/08 08:30:24;;;;;;;5.97;4.70;;;4.60;99.90;;;;;;5013064;28;20466;-73
2021/12/08 08:32:53;;;;;;;12.90;6.73;;;4.60;99.90;;;;;;5014151;28;20471;-73
2021/12/08 08:35:21;;;;;;;6.97;4.90;;;4.60;99.90;;;;;;5012990;28;20851;-73
2021/12/08 08:37:48;;;;;;;5.27;4.77;;;4.70;99.90;;;;;;5010617;28;20456;-72
2021/12/08 08:40:20;;;;;;;8.47;6.00;;;4.60;99.90;;;;;;5014761;28;20596;-77
2021/12/08 08:42:49;;;;;;;8.47;6.47;;;4.70;99.90;;;;;;5013791;28;20455;-74
2021/12/08 08:45:27;;;;;;;7.73;6.20;;;4.60;99.90;;;;;;5012790;28;20974;-75
2021/12/08 08:48:08;;;;;;;8.27;5.80;;;4.60;99.90;;;;;;5028037;28;20454;-73
2021/12/08 08:50:37;;;;;;;7.00;5.50;;;4.70;99.90;;;;;;5013458;28;20467;-73
2021/12/08 08:53:05;;;;;;;7.80;6.03;;;4.70;99.90;;;;;;5028655;28;20460;-73
2021/12/08 08:55:39;;;;;;;8.17;6.20;;;4.70;99.90;;;;;;5013129;28;20483;-73
2021/12/08 08:58:08;;;;;;;9.40;6.47;;;4.70;99.90;;;;;;4997920;28;21012;-75
2021/12/08 09:00:49;;;;;;;7.90;6.07;;;4.70;99.90;;;;;;5012206;28;20455;-72
2021/12/08 09:03:22;;;;;;;8.87;6.43;;;4.70;99.90;;;;;;5011090;28;20447;-73
2021/12/08 09:05:54;;;;;;;8.67;7.10;;;4.70;99.90;;;;;;5030055;28;20464;-73
2021/12/08 09:08:23;;;;;;;12.40;8.47;;;4.70;99.90;;;;;;4993756;28;20462;-73
2021/12/08 09:11:01;;;;;;;11.30;8.17;;;4.70;99.90;;;;;;5020318;28;20459;-74
2021/12/08 09:13:38;;;;;;;9.30;5.83;;;4.70;99.90;;;;;;5011977;28;20546;-73
2021/12/08 09:16:27;;;;;;;8.73;5.67;;;4.70;99.90;;;;;;5028753;28;20454;-73
2021/12/08 09:19:09;;;;;;;13.37;5.70;;;4.70;99.90;;;;;;5029890;28;20502;-73
2021/12/08 09:21:42;;;;;;;9.00;6.17;;;4.70;99.90;;;;;;5029700;28;20463;-75
2021/12/08 09:24:08;;;;;;;8.43;6.17;;;4.80;99.90;;;;;;5028899;28;20447;-75
2021/12/08 09:26:39;;;;;;;7.57;5.73;;;4.70;99.90;;;;;;5028472;28;20479;-73
2021/12/08 09:29:11;;;;;;;10.33;6.03;;;4.70;99.90;;;;;;5010679;28;20470;-73
2021/12/08 09:31:54;;;;;;;6.13;5.13;;;4.80;99.90;;;;;;5029560;28;20994;-73
2021/12/08 09:34:27;;;;;;;7.20;5.10;;;4.70;99.90;;;;;;5028147;28;20465;-73
2021/12/08 09:36:59;;;;;;;10.37;5.23;;;4.80;99.90;;;;;;5025376;28;20462;-75
2021/12/08 09:39:31;;;;;;;8.63;6.03;;;4.80;99.90;;;;;;5011425;28;20851;-75
2021/12/08 09:41:58;;;;;;;8.30;5.57;;;4.80;99.90;;;;;;5010282;28;20494;-75
2021/12/08 09:44:29;;;;;;;9.50;5.90;;;4.80;99.90;;;;;;5027724;28;20487;-73
2021/12/08 09:46:55;;;;;;;6.93;5.47;;;4.80;99.90;;;;;;5026975;28;20456;-76
2021/12/08 09:49:24;;;;;;;8.47;6.20;;;4.80;99.90;;;;;;5012151;28;20475;-76
2021/12/08 09:51:54;;;;;;;9.47;5.70;;;4.80;99.90;;;;;;5010356;28;20802;-75
2021/12/08 09:54:20;;;;;;;5.93;5.03;;;4.80;99.90;;;;;;5027998;28;20513;-74
2021/12/08 09:56:49;;;;;;;9.57;6.30;;;4.90;99.90;;;;;;5006640;28;20452;-74
2021/12/08 09:59:15;;;;;;;6.93;5.10;;;4.80;99.90;;;;;;5026912;28;20525;-73
2021/12/08 10:01:42;;;;;;;8.10;6.90;;;4.90;99.90;;;;;;5010070;28;20505;-73
2021/12/08 10:04:11;;;;;;;12.07;6.43;;;4.90;99.90;;;;;;5010048;28;20473;-72
2021/12/08 10:06:40;;;;;;;9.50;6.10;;;4.90;99.90;;;;;;5027768;28;20546;-73
2021/12/08 10:09:06;;;;;;;9.00;6.30;;;4.90;99.90;;;;;;5010125;28;20436;-72
2021/12/08 10:11:32;;;;;;;7.57;5.43;;;4.90;99.90;;;;;;5024106;28;20458;-72
2021/12/08 10:14:00;;;;;;;6.90;5.70;;;4.90;99.90;;;;;;5008880;28;20455;-72
2021/12/08 10:16:27;;;;;;;11.87;7.00;;;4.90;99.90;;;;;;5010566;28;20455;-75
2021/12/08 10:18:55;;;;;;;11.40;6.97;;;5.00;99.90;;;;;;5028606;28;20471;-74
2021/12/08 10:21:21;;;;;;;9.27;7.37;;;4.90;99.90;;;;;;5010773;28;20542;-72
2021/12/08 10:23:48;;;;;;;8.57;5.90;;;5.00;99.90;;;;;;5011651;28;20538;-73
2021/12/08 10:26:17;;;;;;;8.00;6.30;;;5.00;99.90;;;;;;5011995;28;20551;-73
2021/12/08 10:28:51;;;;;;;7.03;5.63;;;5.00;99.90;;;;;;5027836;28;20462;-72
2021/12/08 10:31:28;;;;;;;7.87;5.90;;;5.00;99.90;;;;;;5012637;28;20521;-73
2021/12/08 10:34:14;;;;;;;10.90;7.17;;;5.00;99.90;;;;;;5009408;28;21062;-73
2021/12/08 10:36:45;;;;;;;10.60;6.97;;;5.00;99.90;;;;;;4992179;28;20487;-71
2021/12/08 10:39:13;;;;;;;13.77;7.43;;;5.00;99.90;;;;;;5007459;28;20467;-74
2021/12/08 10:42:10;;;;;;;13.47;7.63;;;5.10;99.90;;;;;;5027245;28;20455;-75
2021/12/08 10:45:02;;;;;;;8.20;6.27;;;5.10;99.90;;;;;;5028925;28;20455;-72
2021/12/08 10:47:47;;;;;;;8.20;6.00;;;5.10;99.90;;;;;;5029466;28;20548;-73
2021/12/08 10:56:12;;;;;;;6.23;5.00;;;5.10;99.90;;;;;;5028781;28;20535;-72
2021/12/08 10:58:43;;;;;;;9.53;5.97;;;5.10;99.90;;;;;;5027996;28;20451;-72
2021/12/08 11:01:11;;;;;;;12.67;7.60;;;5.10;99.90;;;;;;5028358;28;20447;-72
2021/12/08 11:03:39;;;;;;;14.10;6.80;;;5.10;99.90;;;;;;5010905;28;20498;-72
2021/12/08 11:06:06;;;;;;;10.73;6.40;;;5.20;99.90;;;;;;5008446;28;20459;-72
2021/12/08 11:08:37;;;;;;;10.77;6.17;;;5.20;99.90;;;;;;5009984;28;21036;-74
2021/12/08 11:11:20;;;;;;;7.77;5.30;;;5.20;99.90;;;;;;5034036;28;20490;-73
2021/12/08 11:13:49;;;;;;;9.60;6.90;;;5.20;99.90;;;;;;5026377;28;20479;-74
2021/12/08 11:16:43;;;;;;;11.63;7.20;;;5.20;99.90;;;;;;5026011;28;20459;-73
2021/12/08 11:19:14;;;;;;;11.27;7.80;;;5.20;99.90;;;;;;5025897;28;20986;-74
2021/12/08 11:21:43;;;;;;;16.30;8.93;;;5.20;99.90;;;;;;5026667;28;21001;-73
2021/12/08 11:24:20;;;;;;;9.27;8.00;;;5.30;99.90;;;;;;5009772;28;20796;-73
2021/12/08 11:26:49;;;;;;;14.13;8.23;;;5.20;99.90;;;;;;5007680;28;20463;-73
2021/12/08 11:29:22;;;;;;;15.43;9.90;;;5.30;99.90;;;;;;5011719;28;20455;-73
2021/12/08 11:31:56;;;;;;;13.07;9.17;;;5.30;99.90;;;;;;5011567;28;20533;-73
2021/12/08 11:34:24;;;;;;;14.50;7.80;;;5.30;99.90;;;;;;5014549;28;20843;-73
2021/12/08 11:37:02;;;;;;;12.87;8.87;;;5.30;99.90;;;;;;5014320;28;20467;-73
2021/12/08 11:39:31;;;;;;;11.87;8.10;;;5.30;99.90;;;;;;5014972;28;20467;-73
2021/12/08 11:42:06;;;;;;;16.97;8.77;;;5.30;99.90;;;;;;5014498;28;20482;-73
2021/12/08 11:44:36;;;;;;;12.97;8.50;;;5.30;99.90;;;;;;5029406;28;20467;-77
2021/12/08 11:47:04;;;;;;;9.60;6.93;;;5.30;99.90;;;;;;5029265;28;20548;-74
2021/12/08 11:49:31;;;;;;;10.50;7.33;;;5.30;99.90;;;;;;5031126;28;20861;-74
2021/12/08 11:52:02;;;;;;;11.00;7.77;;;5.30;99.90;;;;;;5030005;28;20474;-73
2021/12/08 11:54:27;;;;;;;13.03;7.60;;;5.40;99.90;;;;;;5010935;28;20459;-73
2021/12/08 11:57:02;;;;;;;13.43;6.97;;;5.40;99.90;;;;;;5011291;28;20463;-73
2021/12/08 11:59:28;;;;;;;14.10;9.13;;;5.40;99.90;;;;;;4994854;28;20224;-73
2021/12/08 12:01:54;;;;;;;13.37;8.87;;;5.40;99.90;;;;;;4994541;28;20479;-73
2021/12/08 12:04:19;;;;;;;12.87;8.37;;;5.40;99.90;;;;;;5031845;28;20224;-74
2021/12/08 12:06:45;;;;;;;14.30;8.90;;;5.40;99.90;;;;;;5014836;28;20224;-73
2021/12/08 12:09:11;;;;;;;14.43;8.77;;;5.40;99.90;;;;;;5021367;28;20223;-72
2021/12/08 12:11:37;;;;;;;12.43;7.70;;;5.50;99.90;;;;;;5044606;28;20223;-73
2021/12/08 12:14:04;;;;;;;10.00;7.57;;;5.50;99.90;;;;;;5032122;28;20459;-75
2021/12/08 12:16:30;;;;;;;10.30;6.50;;;5.50;99.90;;;;;;5013786;28;20649;-73
2021/12/08 12:19:00;;;;;;;11.73;8.00;;;5.50;99.90;;;;;;5011303;28;20540;-73
2021/12/08 12:22:10;;;;;;;11.63;7.90;;;5.50;99.90;;;;;;5010832;28;20444;-74
2021/12/08 12:25:02;;;;;;;12.87;8.70;;;5.50;99.90;;;;;;4996269;28;20482;-69
2021/12/08 12:27:45;;;;;;;10.67;7.40;;;5.50;99.90;;;;;;5030171;28;20462;-74
2021/12/08 12:30:40;;;;;;;15.50;9.10;;;5.60;99.90;;;;;;5013516;28;20471;-75
2021/12/08 12:33:16;;;;;;;12.63;8.50;;;5.60;99.90;;;;;;4991326;28;20452;-74
2021/12/08 12:35:48;;;;;;;16.20;9.57;;;5.60;99.90;;;;;;5013960;28;20454;-73
2021/12/08 12:38:14;;;;;;;11.77;8.33;;;5.60;99.90;;;;;;5014085;28;20475;-74
2021/12/08 12:40:48;;;;;;;10.33;7.03;;;5.60;99.90;;;;;;5029882;28;20451;-74
2021/12/08 12:43:25;;;;;;;13.87;8.70;;;5.60;99.90;;;;;;5025204;28;20262;-74
2021/12/08 12:46:03;;;;;;;13.60;8.23;;;5.60;99.90;;;;;;5030003;28;20470;-73
2021/12/08 12:48:30;;;;;;;13.47;8.17;;;5.60;99.90;;;;;;4995015;28;20469;-73
2021/12/08 12:51:06;;;;;;;11.93;8.00;;;5.60;99.90;;;;;;5030073;28;20472;-74
2021/12/08 12:53:54;;;;;;;11.40;7.13;;;5.60;99.90;;;;;;5014138;28;20474;-73
2021/12/08 12:56:42;;;;;;;8.47;6.23;;;5.70;99.90;;;;;;5032054;28;20509;-73
2021/12/08 12:59:11;;;;;;;11.87;7.87;;;5.70;99.90;;;;;;5043192;28;20463;-73
2021/12/08 13:01:43;;;;;;;11.67;7.80;;;5.70;99.90;;;;;;5049643;28;20477;-73
2021/12/08 13:04:20;;;;;;;9.80;7.40;;;5.70;99.90;;;;;;5013163;28;20501;-74
2021/12/08 13:06:47;;;;;;;9.10;6.33;;;5.70;99.90;;;;;;5030675;28;20466;-74
2021/12/08 13:09:33;;;;;;;10.97;6.90;;;5.70;99.90;;;;;;4981623;28;20451;-74
2021/12/08 13:12:14;;;;;;;13.20;6.00;;;5.80;99.90;;;;;;5025305;28;20474;-73
2021/12/08 13:14:40;;;;;;;8.97;6.43;;;5.80;99.90;;;;;;5013902;28;20491;-76
2021/12/08 13:17:11;;;;;;;9.67;6.40;;;5.80;99.90;;;;;;5013181;28;20781;-73
2021/12/08 13:19:46;;;;;;;12.97;6.37;;;5.80;99.90;;;;;;5029870;28;20856;-73
2021/12/08 13:22:51;;;;;;;9.87;6.47;;;5.80;99.90;;;;;;5012450;28;20459;-74
2021/12/08 13:28:23;;;;;;;13.07;7.80;;;5.80;99.90;;;;;;5026312;28;20517;-73
2021/12/08 13:30:51;;;;;;;11.73;8.17;;;5.90;99.90;;;;;;5029395;28;20547;-74
2021/12/08 13:33:30;;;;;;;9.43;7.30;;;5.90;99.90;;;;;;5008395;28;20474;-74
2021/12/08 13:35:58;;;;;;;14.17;7.70;;;5.90;99.90;;;;;;4988310;28;20526;-73
2021/12/08 13:38:25;;;;;;;14.50;8.10;;;5.90;99.90;;;;;;5013021;28;20479;-74
2021/12/08 13:40:56;;;;;;;13.03;7.47;;;5.90;99.90;;;;;;5028900;28;20526;-73
2021/12/08 13:43:36;;;;;;;8.97;6.87;;;5.90;99.90;;;;;;5012482;28;20455;-74
2021/12/08 13:46:03;;;;;;;11.97;8.30;;;5.90;99.90;;;;;;5028556;28;20534;-73
2021/12/08 13:48:29;;;;;;;14.23;7.50;;;6.00;99.90;;;;;;4996650;28;20459;-73
2021/12/08 13:51:15;;;;;;;11.60;8.27;;;6.00;99.90;;;;;;5012380;28;20471;-72
2021/12/08 13:53:40;;;;;;;12.97;8.10;;;6.00;99.90;;;;;;5028531;28;20220;-73
2021/12/08 13:56:06;;;;;;;12.50;8.57;;;6.00;99.90;;;;;;5011883;28;20509;-73
2021/12/08 13:58:39;;;;;;;14.93;11.23;;;6.00;99.90;;;;;;5013192;28;20221;-73
2021/12/08 14:01:13;;;;;;;18.73;10.40;;;6.00;99.90;;;;;;5029181;28;20282;-74
2021/12/08 14:03:41;;;;;;;13.47;8.70;;;6.00;99.90;;;;;;5012754;28;20513;-74
2021/12/08 14:06:09;;;;;;;15.33;9.17;;;6.00;99.90;;;;;;5011312;28;20444;-72
2021/12/08 14:08:44;;;;;;;15.50;10.47;;;6.00;99.90;;;;;;5012551;28;20455;-75
2021/12/08 14:11:14;;;;;;;16.93;9.47;;;6.00;99.90;;;;;;5021503;28;20490;-73